createdAt,value
2022-09-13T00:02:01.709Z,99.69
2022-09-13T00:04:49.683Z,99.97
2022-09-13T00:07:37.842Z,100.00
2022-09-13T00:10:26.592Z,100.00
2022-09-13T00:13:17.046Z,100.00
2022-09-13T00:16:17.881Z,100.00
2022-09-13T00:19:06.800Z,100.00
2022-09-13T00:21:54.660Z,100.00
2022-09-13T00:24:42.677Z,100.00
2022-09-13T00:27:33.190Z,100.00
2022-09-13T00:30:21.105Z,100.00
2022-09-13T00:33:09.008Z,100.00
2022-09-13T00:35:57.418Z,100.00
2022-09-13T00:38:45.530Z,100.00
2022-09-13T00:41:33.775Z,100.00
2022-09-13T00:45:12.862Z,100.00
2022-09-13T00:48:08.046Z,100.00
2022-09-13T00:50:56.534Z,100.00
2022-09-13T00:53:50.266Z,100.00
2022-09-13T00:56:47.737Z,100.00
2022-09-13T01:00:14.343Z,100.00
2022-09-13T01:03:08.392Z,100.00
2022-09-13T01:06:20.790Z,100.00
2022-09-13T01:09:10.708Z,100.00
2022-09-13T01:12:08.412Z,100.00
2022-09-13T01:15:00.139Z,100.00
2022-09-13T01:17:48.450Z,100.00
2022-09-13T01:20:57.877Z,100.00
2022-09-13T01:24:13.130Z,100.00
2022-09-13T01:27:16.525Z,100.00
2022-09-13T01:30:18.155Z,100.00
2022-09-13T01:33:23.040Z,100.00
2022-09-13T01:36:24.319Z,100.00
2022-09-13T01:39:29.187Z,100.00
2022-09-13T01:42:41.699Z,100.00
2022-09-13T01:45:59.958Z,100.00
2022-09-13T01:48:58.831Z,100.00
2022-09-13T01:52:08.150Z,100.00
2022-09-13T01:55:30.942Z,100.00
2022-09-13T01:58:24.715Z,100.00
2022-09-13T02:01:50.608Z,100.00
2022-09-13T02:04:47.188Z,100.00
2022-09-13T02:07:54.411Z,100.00
2022-09-13T02:10:50.000Z,100.00
2022-09-13T02:13:48.326Z,100.00
2022-09-13T02:17:02.137Z,100.00
2022-09-13T02:20:12.705Z,100.00
2022-09-13T02:23:09.439Z,100.00
2022-09-13T02:25:59.762Z,100.00
2022-09-13T02:28:56.446Z,100.00
2022-09-13T02:32:12.300Z,100.00
2022-09-13T02:35:16.396Z,100.00
2022-09-13T02:38:33.925Z,100.00
2022-09-13T02:41:59.351Z,100.00
2022-09-13T02:44:54.489Z,100.00
2022-09-13T02:47:58.720Z,100.00
2022-09-13T02:51:04.738Z,100.00
2022-09-13T02:53:59.530Z,100.00
2022-09-13T02:57:01.510Z,100.00
2022-09-13T02:59:49.943Z,100.00
2022-09-13T03:02:40.734Z,100.00
2022-09-13T03:05:28.738Z,100.00
2022-09-13T03:08:18.488Z,100.00
2022-09-13T03:11:29.768Z,100.00
2022-09-13T03:14:43.810Z,100.00
2022-09-13T03:17:34.901Z,100.00
2022-09-13T03:20:51.598Z,100.00
2022-09-13T03:23:52.893Z,100.00
2022-09-13T03:27:02.009Z,100.00
2022-09-13T03:30:02.650Z,100.00
2022-09-13T03:33:02.358Z,100.00
2022-09-13T03:36:28.435Z,100.00
2022-09-13T03:39:40.548Z,100.00
2022-09-13T03:42:50.753Z,100.00
2022-09-13T03:45:50.203Z,100.00
2022-09-13T03:48:41.734Z,100.00
2022-09-13T03:51:29.747Z,100.00
2022-09-13T03:54:27.995Z,100.00
2022-09-13T03:57:22.415Z,100.00
2022-09-13T04:00:13.235Z,100.00
2022-09-13T04:03:00.951Z,100.00
2022-09-13T04:05:48.999Z,100.00
2022-09-13T04:08:37.151Z,100.00
2022-09-13T04:11:25.333Z,100.00
2022-09-13T04:14:13.363Z,100.00
2022-09-13T04:17:01.655Z,100.00
2022-09-13T04:19:49.442Z,100.00
2022-09-13T04:22:37.795Z,100.00
2022-09-13T04:25:25.648Z,100.00
2022-09-13T04:28:13.877Z,100.00
2022-09-13T04:31:01.868Z,100.00
2022-09-13T04:33:50.134Z,100.00
2022-09-13T04:36:40.998Z,100.00
2022-09-13T04:39:30.937Z,100.00
2022-09-13T04:42:20.023Z,100.00
2022-09-13T04:45:08.574Z,100.00
2022-09-13T04:47:57.262Z,100.00
2022-09-13T04:50:45.202Z,100.00
2022-09-13T04:53:33.137Z,100.00
2022-09-13T04:56:23.301Z,100.00
2022-09-13T04:59:12.249Z,100.00
2022-09-13T05:02:00.407Z,100.00
2022-09-13T05:04:48.113Z,100.00
2022-09-13T05:07:35.948Z,100.00
2022-09-13T05:10:24.639Z,100.00
2022-09-13T05:13:12.479Z,99.94
2022-09-13T05:16:04.984Z,99.58
2022-09-13T05:18:53.897Z,98.29
2022-09-13T05:21:43.813Z,97.57
2022-09-13T05:24:31.600Z,96.91
2022-09-13T05:27:19.509Z,96.34
2022-09-13T05:30:08.349Z,96.01
2022-09-13T05:32:58.022Z,95.34
2022-09-13T05:35:46.038Z,94.40
2022-09-13T05:38:34.342Z,94.14
2022-09-13T05:41:22.664Z,93.68
2022-09-13T05:44:13.450Z,93.03
2022-09-13T05:47:01.803Z,92.88
2022-09-13T05:50:09.261Z,92.76
2022-09-13T05:52:57.780Z,92.07
2022-09-13T05:55:46.284Z,91.31
2022-09-13T05:58:38.583Z,89.86
2022-09-13T06:01:29.159Z,88.62
2022-09-13T06:04:17.169Z,87.72
2022-09-13T06:07:05.032Z,87.22
2022-09-13T06:09:53.637Z,85.62
2022-09-13T06:12:41.569Z,84.79
2022-09-13T06:15:29.397Z,83.83
2022-09-13T06:18:20.233Z,83.03
2022-09-13T06:21:18.085Z,80.76
2022-09-13T06:24:06.553Z,79.84
2022-09-13T06:26:54.505Z,78.68
2022-09-13T06:29:42.457Z,78.41
2022-09-13T06:32:30.543Z,78.57
2022-09-13T06:35:18.180Z,76.79
2022-09-13T06:38:06.183Z,76.98
2022-09-13T06:41:12.826Z,76.36
2022-09-13T06:44:01.680Z,75.29
2022-09-13T06:46:49.240Z,75.56
2022-09-13T06:49:37.016Z,74.41
2022-09-13T06:52:25.567Z,74.01
2022-09-13T06:55:13.443Z,73.72
2022-09-13T06:58:01.325Z,73.88
2022-09-13T07:00:51.881Z,73.99
2022-09-13T07:03:50.658Z,74.43
2022-09-13T07:06:43.097Z,73.83
2022-09-13T07:09:31.081Z,72.92
2022-09-13T07:12:20.735Z,73.04
2022-09-13T07:15:09.755Z,71.95
2022-09-13T07:17:57.486Z,71.60
2022-09-13T07:20:45.736Z,71.09
2022-09-13T07:23:35.785Z,71.29
2022-09-13T07:26:25.309Z,70.75
2022-09-13T07:29:22.818Z,70.81
2022-09-13T07:32:10.643Z,70.22
2022-09-13T07:34:58.859Z,69.82
2022-09-13T07:37:46.889Z,70.01
2022-09-13T07:40:36.898Z,70.25
2022-09-13T07:43:26.494Z,70.11
2022-09-13T07:46:26.512Z,70.23
2022-09-13T07:49:18.939Z,70.79
2022-09-13T07:52:06.892Z,69.87
2022-09-13T07:54:54.839Z,68.78
2022-09-13T07:57:43.468Z,66.26
2022-09-13T08:00:31.008Z,64.47
2022-09-13T08:03:18.978Z,63.75
2022-09-13T08:06:08.721Z,63.72
2022-09-13T08:08:57.606Z,63.90
2022-09-13T08:11:49.641Z,65.29
2022-09-13T08:14:37.329Z,66.51
2022-09-13T08:17:27.246Z,67.64
2022-09-13T08:20:15.238Z,68.85
2022-09-13T08:23:03.245Z,69.93
2022-09-13T08:25:51.502Z,70.86
2022-09-13T08:28:41.321Z,71.26
2022-09-13T08:31:30.233Z,72.13
2022-09-13T08:34:18.380Z,72.89
2022-09-13T08:37:06.367Z,73.73
2022-09-13T08:39:54.436Z,74.47
2022-09-13T08:42:59.591Z,75.24
2022-09-13T08:46:00.981Z,75.99
2022-09-13T08:48:53.672Z,76.32
2022-09-13T08:51:48.165Z,77.19
2022-09-13T08:54:35.900Z,77.49
2022-09-13T08:58:08.320Z,77.88
2022-09-13T09:01:04.942Z,77.98
2022-09-13T09:04:12.763Z,78.05
2022-09-13T09:07:27.407Z,77.83
2022-09-13T09:10:31.244Z,78.13
2022-09-13T09:14:01.037Z,77.71
2022-09-13T09:16:55.679Z,77.58
2022-09-13T09:19:48.299Z,77.51
2022-09-13T09:22:36.605Z,77.56
2022-09-13T09:25:26.861Z,77.46
2022-09-13T09:28:19.590Z,77.59
2022-09-13T09:31:32.618Z,78.05
2022-09-13T09:34:23.085Z,78.29
2022-09-13T09:37:29.305Z,78.55
2022-09-13T09:40:17.625Z,78.62
2022-09-13T09:43:35.363Z,79.83
2022-09-13T09:46:29.471Z,80.48
2022-09-13T09:49:57.992Z,81.05
2022-09-13T09:53:15.351Z,81.38
2022-09-13T09:56:15.214Z,81.02
2022-09-13T09:59:03.894Z,81.39
2022-09-13T10:01:51.718Z,81.15
2022-09-13T10:04:40.772Z,80.49
2022-09-13T10:07:33.411Z,79.73
2022-09-13T10:10:26.934Z,78.63
2022-09-13T10:13:22.872Z,78.67
2022-09-13T10:16:30.178Z,78.17
2022-09-13T10:19:26.341Z,78.15
2022-09-13T10:22:14.196Z,77.65
2022-09-13T10:25:37.391Z,77.34
2022-09-13T10:28:26.143Z,76.44
2022-09-13T10:31:19.685Z,76.58
2022-09-13T10:34:34.401Z,76.09
2022-09-13T10:37:31.572Z,75.75
2022-09-13T10:40:27.170Z,75.24
2022-09-13T10:43:20.103Z,74.79
2022-09-13T10:46:22.400Z,74.06
2022-09-13T10:50:10.838Z,74.01
2022-09-13T10:53:00.890Z,73.45
2022-09-13T10:55:55.310Z,72.69
2022-09-13T10:58:43.248Z,72.61
2022-09-13T11:02:10.931Z,72.37
2022-09-13T11:05:34.992Z,72.04
2022-09-13T11:08:59.673Z,71.85
2022-09-13T11:12:12.128Z,71.57
2022-09-13T11:15:33.937Z,70.88
2022-09-13T11:18:59.466Z,70.51
2022-09-13T11:22:11.855Z,70.78
2022-09-13T11:25:48.919Z,70.57
2022-09-13T11:29:21.294Z,69.72
2022-09-13T11:32:31.147Z,68.38
2022-09-13T11:35:45.056Z,67.67
2022-09-13T11:38:58.592Z,66.70
2022-09-13T11:42:13.224Z,65.97
2022-09-13T11:45:26.685Z,65.50
2022-09-13T11:49:18.511Z,65.89
2022-09-13T11:52:20.688Z,65.56
2022-09-13T11:55:30.694Z,65.41
2022-09-13T11:58:51.883Z,65.65
2022-09-13T12:01:46.022Z,66.29
2022-09-13T12:05:21.617Z,66.48
2022-09-13T12:08:31.093Z,67.42
2022-09-13T12:11:45.824Z,67.94
2022-09-13T12:14:53.522Z,68.19
2022-09-13T12:17:48.310Z,68.61
2022-09-13T12:20:40.650Z,69.01
2022-09-13T12:24:08.390Z,70.03
2022-09-13T12:27:35.319Z,71.03
2022-09-13T12:30:46.052Z,72.24
2022-09-13T12:33:34.260Z,72.78
2022-09-13T12:36:31.461Z,73.79
2022-09-13T12:39:41.552Z,74.58
2022-09-13T12:42:41.845Z,75.17
2022-09-13T12:46:11.198Z,75.08
2022-09-13T12:49:20.999Z,75.70
2022-09-13T12:52:47.232Z,75.88
2022-09-13T12:56:18.744Z,76.25
2022-09-13T12:59:45.046Z,76.99
2022-09-13T13:02:45.087Z,77.68
2022-09-13T13:05:38.554Z,77.61
2022-09-13T13:08:30.514Z,78.07
2022-09-13T13:11:27.902Z,77.66
2022-09-13T13:14:40.130Z,77.49
2022-09-13T13:17:46.860Z,76.74
2022-09-13T13:20:56.606Z,77.01
2022-09-13T13:23:45.863Z,77.34
2022-09-13T13:26:42.578Z,77.58
2022-09-13T13:29:32.731Z,76.88
2022-09-13T13:32:20.848Z,76.75
2022-09-13T13:35:30.386Z,75.67
2022-09-13T13:38:41.757Z,74.98
2022-09-13T13:41:38.578Z,73.48
2022-09-13T13:44:26.457Z,72.86
2022-09-13T13:47:14.813Z,73.62
2022-09-13T13:50:20.762Z,73.47
2022-09-13T13:53:35.402Z,72.73
2022-09-13T13:56:48.765Z,72.76
2022-09-13T13:59:37.189Z,72.78
2022-09-13T14:02:51.203Z,73.17
2022-09-13T14:06:16.776Z,73.34
2022-09-13T14:09:22.926Z,73.50
2022-09-13T14:12:13.890Z,73.81
2022-09-13T14:15:20.891Z,74.15
2022-09-13T14:18:32.514Z,74.79
2022-09-13T14:21:30.485Z,74.96
2022-09-13T14:24:24.622Z,74.86
2022-09-13T14:27:24.594Z,75.22
2022-09-13T14:30:20.294Z,75.63
2022-09-13T14:33:23.715Z,75.49
2022-09-13T14:36:21.563Z,75.27
2022-09-13T14:39:09.892Z,75.30
2022-09-13T14:42:14.014Z,75.49
2022-09-13T14:45:01.810Z,76.10
2022-09-13T14:48:19.238Z,76.69
2022-09-13T14:51:50.786Z,77.19
2022-09-13T14:54:47.861Z,77.40
2022-09-13T14:57:45.739Z,78.25
2022-09-13T15:00:48.548Z,79.07
2022-09-13T15:03:37.149Z,79.75
2022-09-13T15:06:40.399Z,80.31
2022-09-13T15:09:29.182Z,81.51
2022-09-13T15:12:28.239Z,82.45
2022-09-13T15:15:31.490Z,83.99
2022-09-13T15:18:51.575Z,85.34
2022-09-13T15:21:46.952Z,86.88
2022-09-13T15:24:39.468Z,88.22
2022-09-13T15:27:49.853Z,89.84
2022-09-13T15:30:48.570Z,91.67
2022-09-13T15:34:19.124Z,91.95
2022-09-13T15:37:12.565Z,93.42
2022-09-13T15:40:21.732Z,94.07
2022-09-13T15:43:14.140Z,94.52
2022-09-13T15:46:02.516Z,95.29
2022-09-13T15:48:58.015Z,95.49
2022-09-13T15:51:46.412Z,96.79
2022-09-13T15:54:42.750Z,96.68
2022-09-13T15:57:31.854Z,97.17
2022-09-13T16:00:27.892Z,97.92
2022-09-13T16:03:15.687Z,98.92
2022-09-13T16:06:03.836Z,99.14
2022-09-13T16:08:51.919Z,99.07
2022-09-13T16:11:39.868Z,99.01
2022-09-13T16:14:27.743Z,98.97
2022-09-13T16:17:27.784Z,99.16
2022-09-13T16:20:19.704Z,99.44
2022-09-13T16:23:07.682Z,98.76
2022-09-13T16:26:00.112Z,98.68
2022-09-13T16:28:52.293Z,98.69
2022-09-13T16:31:41.063Z,98.73
2022-09-13T16:34:29.205Z,98.36
2022-09-13T16:37:20.251Z,97.26
2022-09-13T16:40:12.467Z,96.88
2022-09-13T16:43:00.113Z,96.68
2022-09-13T16:45:50.579Z,96.42
2022-09-13T16:48:38.405Z,96.52
2022-09-13T16:51:26.688Z,96.50
2022-09-13T16:54:14.903Z,96.78
2022-09-13T16:57:07.051Z,96.63
2022-09-13T16:59:58.553Z,96.89
2022-09-13T17:02:47.618Z,96.95
2022-09-13T17:05:35.906Z,96.75
2022-09-13T17:08:23.460Z,97.34
2022-09-13T17:11:16.019Z,97.32
2022-09-13T17:14:08.644Z,97.74
2022-09-13T17:16:58.310Z,98.38
2022-09-13T17:19:47.134Z,98.11
2022-09-13T17:22:36.726Z,98.82
2022-09-13T17:25:56.838Z,99.19
2022-09-13T17:28:58.955Z,99.80
2022-09-13T17:31:52.648Z,100.00
2022-09-13T17:34:40.643Z,100.00
2022-09-13T17:37:28.708Z,100.00
2022-09-13T17:40:16.520Z,100.00
2022-09-13T17:43:05.776Z,100.00
2022-09-13T17:45:53.457Z,100.00
2022-09-13T17:48:43.860Z,100.00
2022-09-13T17:51:34.887Z,100.00
2022-09-13T17:54:23.129Z,100.00
2022-09-13T17:57:12.060Z,100.00
2022-09-13T17:59:59.921Z,100.00
2022-09-13T18:02:47.752Z,100.00
2022-09-13T18:05:35.841Z,100.00
2022-09-13T18:08:38.294Z,100.00
2022-09-13T18:12:12.597Z,100.00
2022-09-13T18:15:01.158Z,100.00
2022-09-13T18:17:49.156Z,100.00
2022-09-13T18:20:40.530Z,100.00
2022-09-13T18:23:29.696Z,100.00
2022-09-13T18:26:22.867Z,100.00
2022-09-13T18:29:17.454Z,100.00
2022-09-13T18:32:15.439Z,100.00
2022-09-13T18:35:15.646Z,100.00
2022-09-13T18:38:03.909Z,100.00
2022-09-13T18:41:15.149Z,100.00
2022-09-13T18:44:05.148Z,100.00
2022-09-13T18:46:54.426Z,100.00
2022-09-13T18:49:42.150Z,100.00
2022-09-13T18:52:30.126Z,100.00
2022-09-13T18:55:20.517Z,100.00
2022-09-13T18:58:11.741Z,100.00
2022-09-13T19:01:13.281Z,100.00
2022-09-13T19:04:22.703Z,100.00
2022-09-13T19:07:10.229Z,100.00
2022-09-13T19:09:58.176Z,100.00
2022-09-13T19:12:46.151Z,100.00
2022-09-13T19:15:34.318Z,100.00
2022-09-13T19:18:22.228Z,100.00
2022-09-13T19:21:22.353Z,100.00
2022-09-13T19:24:17.834Z,100.00
2022-09-13T19:27:09.463Z,100.00
2022-09-13T19:29:59.488Z,100.00
2022-09-13T19:32:47.144Z,100.00
2022-09-13T19:35:36.527Z,100.00
2022-09-13T19:41:50.956Z,100.00
2022-09-13T19:44:41.886Z,100.00
2022-09-13T19:48:13.071Z,100.00
2022-09-13T19:50:37.975Z,100.00
2022-09-13T19:53:46.613Z,100.00
2022-09-13T19:56:39.800Z,100.00
2022-09-13T19:59:27.587Z,100.00
2022-09-13T20:02:15.627Z,100.00
2022-09-13T20:05:03.718Z,100.00
2022-09-13T20:07:51.804Z,100.00
2022-09-13T20:10:41.395Z,100.00
2022-09-13T20:13:29.698Z,100.00
2022-09-13T20:16:26.633Z,100.00
2022-09-13T20:22:30.896Z,100.00
2022-09-13T20:25:23.768Z,100.00
2022-09-13T20:28:16.192Z,100.00
2022-09-13T20:31:04.923Z,100.00
2022-09-13T20:34:01.288Z,100.00
2022-09-13T20:36:50.213Z,100.00
2022-09-13T20:39:40.284Z,100.00
2022-09-13T20:42:29.221Z,99.99
2022-09-13T20:45:21.793Z,99.85
2022-09-13T20:48:13.176Z,99.77
2022-09-13T20:51:05.463Z,99.56
2022-09-13T20:53:58.198Z,99.24
2022-09-13T20:56:49.470Z,98.88
2022-09-13T20:59:37.109Z,98.70
2022-09-13T21:02:32.010Z,98.27
2022-09-13T21:05:21.887Z,97.90
2022-09-13T21:08:36.072Z,97.86
2022-09-13T21:11:33.094Z,97.86
2022-09-13T21:14:22.094Z,97.73
2022-09-13T21:17:10.299Z,97.53
2022-09-13T21:20:01.671Z,97.45
2022-09-13T21:22:55.852Z,97.06
2022-09-13T21:25:46.210Z,96.79
2022-09-13T21:28:38.141Z,96.92
2022-09-13T21:31:36.568Z,96.42
2022-09-13T21:39:35.558Z,96.37
2022-09-13T21:44:26.282Z,95.95
2022-09-13T21:47:18.240Z,95.79
2022-09-13T21:50:07.336Z,95.20
2022-09-13T21:52:55.098Z,95.59
2022-09-13T21:55:43.153Z,95.47
2022-09-13T21:58:31.247Z,95.24
2022-09-13T22:01:22.934Z,95.09
2022-09-13T22:04:16.842Z,95.02
2022-09-13T22:07:04.441Z,95.12
2022-09-13T22:09:52.722Z,94.83
2022-09-13T22:12:40.899Z,94.96
2022-09-13T22:15:28.798Z,94.71
2022-09-13T22:18:16.625Z,94.83
2022-09-13T22:21:10.899Z,95.09
2022-09-13T22:23:59.164Z,94.92
2022-09-13T22:26:49.705Z,95.07
2022-09-13T22:29:40.252Z,95.27
2022-09-13T22:32:47.090Z,95.44
2022-09-13T22:35:37.112Z,95.13
2022-09-13T22:38:24.958Z,95.27
2022-09-13T22:41:26.624Z,95.47
2022-09-13T22:44:14.233Z,95.27
2022-09-13T22:47:02.530Z,95.40
2022-09-13T22:49:50.486Z,95.32
2022-09-13T22:52:38.364Z,95.43
2022-09-13T22:55:26.370Z,95.36
2022-09-13T22:58:16.500Z,95.33
2022-09-13T23:01:14.556Z,95.64
2022-09-13T23:04:03.384Z,95.55
2022-09-13T23:06:51.417Z,95.66
2022-09-13T23:09:39.510Z,96.03
2022-09-13T23:12:29.893Z,96.22
2022-09-13T23:15:20.032Z,95.99
2022-09-13T23:18:09.898Z,96.04
2022-09-13T23:20:59.266Z,96.37
2022-09-13T23:23:47.717Z,96.73
2022-09-13T23:26:35.379Z,96.60
2022-09-13T23:29:26.473Z,96.83
2022-09-13T23:32:14.380Z,96.52
2022-09-13T23:35:02.132Z,96.52
2022-09-13T23:37:50.369Z,96.75
2022-09-13T23:40:38.209Z,96.61
2022-09-13T23:43:27.276Z,96.85
2022-09-13T23:46:16.483Z,97.03
2022-09-13T23:49:04.807Z,97.16
2022-09-13T23:51:52.889Z,97.60
2022-09-13T23:54:40.764Z,97.64
2022-09-13T23:57:29.140Z,97.84
